sensor_id;sensor_type;location;lat;lon;timestamp;P1;durP1;ratioP1;P2;durP2;ratioP2
27293;SDS011;14785;52.556;13.430;2022-11-15T00:03:12;36.72;;;16.25;;
27293;SDS011;14785;52.556;13.430;2022-11-15T00:05:39;36.75;;;17.88;;
27293;SDS011;14785;52.556;13.430;2022-11-15T00:08:04;33.10;;;17.40;;
27293;SDS011;14785;52.556;13.430;2022-11-15T00:10:30;30.60;;;16.83;;
27293;SDS011;14785;52.556;13.430;2022-11-15T00:12:55;31.63;;;15.70;;
27293;SDS011;14785;52.556;13.430;2022-11-15T00:15:21;37.77;;;17.17;;
27293;SDS011;14785;52.556;13.430;2022-11-15T00:17:49;28.67;;;16.47;;
27293;SDS011;14785;52.556;13.430;2022-11-15T00:20:15;29.67;;;17.70;;
27293;SDS011;14785;52.556;13.430;2022-11-15T00:22:42;36.03;;;18.77;;
27293;SDS011;14785;52.556;13.430;2022-11-15T00:25:07;30.10;;;16.87;;
27293;SDS011;14785;52.556;13.430;2022-11-15T00:27:33;36.87;;;17.57;;
27293;SDS011;14785;52.556;13.430;2022-11-15T00:29:58;34.07;;;17.13;;
27293;SDS011;14785;52.556;13.430;2022-11-15T00:32:23;34.40;;;18.77;;
27293;SDS011;14785;52.556;13.430;2022-11-15T00:34:49;33.13;;;17.87;;
27293;SDS011;14785;52.556;13.430;2022-11-15T00:37:14;33.30;;;17.30;;
27293;SDS011;14785;52.556;13.430;2022-11-15T00:39:40;27.93;;;16.80;;
27293;SDS011;14785;52.556;13.430;2022-11-15T00:42:05;28.13;;;16.77;;
27293;SDS011;14785;52.556;13.430;2022-11-15T00:44:30;29.63;;;17.20;;
27293;SDS011;14785;52.556;13.430;2022-11-15T00:46:56;32.53;;;18.30;;
27293;SDS011;14785;52.556;13.430;2022-11-15T00:49:21;30.63;;;16.37;;
27293;SDS011;14785;52.556;13.430;2022-11-15T00:51:46;28.80;;;16.53;;
27293;SDS011;14785;52.556;13.430;2022-11-15T00:54:12;32.53;;;17.47;;
27293;SDS011;14785;52.556;13.430;2022-11-15T00:56:37;39.70;;;17.80;;
27293;SDS011;14785;52.556;13.430;2022-11-15T00:59:02;29.23;;;16.33;;
27293;SDS011;14785;52.556;13.430;2022-11-15T01:01:28;37.00;;;19.00;;
27293;SDS011;14785;52.556;13.430;2022-11-15T01:03:53;27.97;;;14.83;;
27293;SDS011;14785;52.556;13.430;2022-11-15T01:06:19;37.03;;;18.67;;
27293;SDS011;14785;52.556;13.430;2022-11-15T01:08:44;32.67;;;17.60;;
27293;SDS011;14785;52.556;13.430;2022-11-15T01:11:10;37.50;;;18.27;;
27293;SDS011;14785;52.556;13.430;2022-11-15T01:13:37;33.60;;;17.40;;
27293;SDS011;14785;52.556;13.430;2022-11-15T01:18:40;33.25;;;18.17;;
27293;SDS011;14785;52.556;13.430;2022-11-15T01:21:07;43.65;;;20.10;;
27293;SDS011;14785;52.556;13.430;2022-11-15T01:23:33;35.28;;;18.45;;
27293;SDS011;14785;52.556;13.430;2022-11-15T01:25:59;29.20;;;17.57;;
27293;SDS011;14785;52.556;13.430;2022-11-15T01:28:29;29.45;;;16.38;;
27293;SDS011;14785;52.556;13.430;2022-11-15T01:30:59;35.42;;;17.90;;
27293;SDS011;14785;52.556;13.430;2022-11-15T01:33:29;40.33;;;19.13;;
27293;SDS011;14785;52.556;13.430;2022-11-15T01:35:55;28.83;;;16.55;;
27293;SDS011;14785;52.556;13.430;2022-11-15T01:38:21;32.30;;;16.07;;
27293;SDS011;14785;52.556;13.430;2022-11-15T01:40:47;35.63;;;20.08;;
27293;SDS011;14785;52.556;13.430;2022-11-15T01:45:45;40.45;;;20.13;;
27293;SDS011;14785;52.556;13.430;2022-11-15T01:48:17;34.45;;;18.23;;
27293;SDS011;14785;52.556;13.430;2022-11-15T01:50:42;39.03;;;19.00;;
27293;SDS011;14785;52.556;13.430;2022-11-15T01:53:07;38.03;;;20.20;;
27293;SDS011;14785;52.556;13.430;2022-11-15T01:55:35;35.92;;;19.35;;
27293;SDS011;14785;52.556;13.430;2022-11-15T01:58:02;37.78;;;19.98;;
27293;SDS011;14785;52.556;13.430;2022-11-15T02:00:30;39.83;;;18.73;;
27293;SDS011;14785;52.556;13.430;2022-11-15T02:02:56;44.10;;;18.05;;
27293;SDS011;14785;52.556;13.430;2022-11-15T02:05:22;36.37;;;18.57;;
27293;SDS011;14785;52.556;13.430;2022-11-15T02:07:48;39.57;;;19.47;;
27293;SDS011;14785;52.556;13.430;2022-11-15T02:10:17;37.67;;;19.42;;
27293;SDS011;14785;52.556;13.430;2022-11-15T02:12:44;38.97;;;18.08;;
27293;SDS011;14785;52.556;13.430;2022-11-15T02:15:11;42.85;;;21.52;;
27293;SDS011;14785;52.556;13.430;2022-11-15T02:17:52;36.28;;;17.52;;
27293;SDS011;14785;52.556;13.430;2022-11-15T02:20:43;33.83;;;18.67;;
27293;SDS011;14785;52.556;13.430;2022-11-15T02:29:02;40.38;;;18.95;;
27293;SDS011;14785;52.556;13.430;2022-11-15T02:34:48;39.95;;;20.45;;
27293;SDS011;14785;52.556;13.430;2022-11-15T02:40:11;37.47;;;19.38;;
27293;SDS011;14785;52.556;13.430;2022-11-15T02:43:00;39.20;;;19.10;;
27293;SDS011;14785;52.556;13.430;2022-11-15T02:45:52;40.85;;;17.88;;
27293;SDS011;14785;52.556;13.430;2022-11-15T02:48:25;30.77;;;17.20;;
27293;SDS011;14785;52.556;13.430;2022-11-15T02:50:51;32.17;;;17.70;;
27293;SDS011;14785;52.556;13.430;2022-11-15T02:53:17;33.17;;;18.30;;
27293;SDS011;14785;52.556;13.430;2022-11-15T02:55:43;37.30;;;18.93;;
27293;SDS011;14785;52.556;13.430;2022-11-15T02:58:18;30.10;;;16.00;;
27293;SDS011;14785;52.556;13.430;2022-11-15T03:00:59;39.43;;;19.17;;
27293;SDS011;14785;52.556;13.430;2022-11-15T03:09:39;28.52;;;16.17;;
27293;SDS011;14785;52.556;13.430;2022-11-15T03:11:43;35.85;;;18.38;;
27293;SDS011;14785;52.556;13.430;2022-11-15T03:14:25;37.28;;;18.15;;
27293;SDS011;14785;52.556;13.430;2022-11-15T03:17:05;34.55;;;16.90;;
27293;SDS011;14785;52.556;13.430;2022-11-15T03:22:11;40.45;;;19.58;;
27293;SDS011;14785;52.556;13.430;2022-11-15T03:24:39;31.55;;;18.10;;
27293;SDS011;14785;52.556;13.430;2022-11-15T03:27:08;33.08;;;17.80;;
27293;SDS011;14785;52.556;13.430;2022-11-15T03:29:45;33.45;;;17.73;;
27293;SDS011;14785;52.556;13.430;2022-11-15T03:32:16;32.70;;;17.25;;
27293;SDS011;14785;52.556;13.430;2022-11-15T03:34:48;25.48;;;14.75;;
27293;SDS011;14785;52.556;13.430;2022-11-15T03:37:20;27.75;;;16.35;;
27293;SDS011;14785;52.556;13.430;2022-11-15T03:39:47;37.65;;;19.58;;
27293;SDS011;14785;52.556;13.430;2022-11-15T03:42:30;32.37;;;19.13;;
27293;SDS011;14785;52.556;13.430;2022-11-15T03:45:23;38.28;;;20.58;;
27293;SDS011;14785;52.556;13.430;2022-11-15T03:48:00;38.45;;;19.77;;
27293;SDS011;14785;52.556;13.430;2022-11-15T03:50:30;32.03;;;17.67;;
27293;SDS011;14785;52.556;13.430;2022-11-15T03:52:56;33.55;;;16.20;;
27293;SDS011;14785;52.556;13.430;2022-11-15T03:55:22;37.53;;;17.85;;
27293;SDS011;14785;52.556;13.430;2022-11-15T03:57:49;36.57;;;18.63;;
27293;SDS011;14785;52.556;13.430;2022-11-15T04:00:17;32.10;;;18.85;;
27293;SDS011;14785;52.556;13.430;2022-11-15T04:02:42;32.43;;;17.37;;
27293;SDS011;14785;52.556;13.430;2022-11-15T04:05:08;40.57;;;20.57;;
27293;SDS011;14785;52.556;13.430;2022-11-15T04:07:33;41.57;;;20.03;;
27293;SDS011;14785;52.556;13.430;2022-11-15T04:09:58;34.23;;;19.20;;
27293;SDS011;14785;52.556;13.430;2022-11-15T04:12:27;36.25;;;20.60;;
27293;SDS011;14785;52.556;13.430;2022-11-15T04:14:57;32.83;;;17.60;;
27293;SDS011;14785;52.556;13.430;2022-11-15T04:18:07;44.22;;;19.80;;
27293;SDS011;14785;52.556;13.430;2022-11-15T04:20:26;30.77;;;17.98;;
27293;SDS011;14785;52.556;13.430;2022-11-15T04:23:16;34.80;;;18.87;;
27293;SDS011;14785;52.556;13.430;2022-11-15T04:26:02;35.75;;;17.08;;
27293;SDS011;14785;52.556;13.430;2022-11-15T04:28:29;36.38;;;18.13;;
27293;SDS011;14785;52.556;13.430;2022-11-15T04:30:55;39.37;;;18.13;;
27293;SDS011;14785;52.556;13.430;2022-11-15T04:33:21;34.40;;;17.47;;
27293;SDS011;14785;52.556;13.430;2022-11-15T04:35:47;38.13;;;17.50;;
27293;SDS011;14785;52.556;13.430;2022-11-15T04:38:32;45.80;;;19.88;;
27293;SDS011;14785;52.556;13.430;2022-11-15T04:40:59;29.30;;;16.98;;
27293;SDS011;14785;52.556;13.430;2022-11-15T04:43:24;31.87;;;17.13;;
27293;SDS011;14785;52.556;13.430;2022-11-15T04:45:49;29.23;;;18.37;;
27293;SDS011;14785;52.556;13.430;2022-11-15T04:48:15;33.63;;;17.27;;
27293;SDS011;14785;52.556;13.430;2022-11-15T04:50:40;40.13;;;18.63;;
27293;SDS011;14785;52.556;13.430;2022-11-15T04:53:06;38.47;;;19.00;;
27293;SDS011;14785;52.556;13.430;2022-11-15T04:55:31;33.47;;;17.33;;
27293;SDS011;14785;52.556;13.430;2022-11-15T04:57:57;35.80;;;18.93;;
27293;SDS011;14785;52.556;13.430;2022-11-15T05:00:27;28.70;;;16.80;;
27293;SDS011;14785;52.556;13.430;2022-11-15T05:02:53;37.55;;;19.55;;
27293;SDS011;14785;52.556;13.430;2022-11-15T05:05:38;33.97;;;18.10;;
27293;SDS011;14785;52.556;13.430;2022-11-15T05:08:03;28.00;;;15.93;;
27293;SDS011;14785;52.556;13.430;2022-11-15T05:10:29;31.90;;;16.70;;
27293;SDS011;14785;52.556;13.430;2022-11-15T05:12:55;33.47;;;16.07;;
27293;SDS011;14785;52.556;13.430;2022-11-15T05:15:20;31.60;;;17.43;;
27293;SDS011;14785;52.556;13.430;2022-11-15T05:17:45;30.00;;;15.97;;
27293;SDS011;14785;52.556;13.430;2022-11-15T05:20:11;32.23;;;16.23;;
27293;SDS011;14785;52.556;13.430;2022-11-15T05:22:37;35.38;;;17.63;;
27293;SDS011;14785;52.556;13.430;2022-11-15T05:25:03;23.97;;;14.57;;
27293;SDS011;14785;52.556;13.430;2022-11-15T05:27:28;39.60;;;16.38;;
27293;SDS011;14785;52.556;13.430;2022-11-15T05:29:54;39.03;;;18.13;;
27293;SDS011;14785;52.556;13.430;2022-11-15T05:32:19;34.97;;;17.60;;
27293;SDS011;14785;52.556;13.430;2022-11-15T05:34:45;36.05;;;19.02;;
27293;SDS011;14785;52.556;13.430;2022-11-15T05:37:11;26.20;;;14.77;;
27293;SDS011;14785;52.556;13.430;2022-11-15T05:39:37;33.28;;;16.63;;
27293;SDS011;14785;52.556;13.430;2022-11-15T05:42:09;31.47;;;16.87;;
27293;SDS011;14785;52.556;13.430;2022-11-15T05:44:36;27.58;;;14.32;;
27293;SDS011;14785;52.556;13.430;2022-11-15T05:47:07;27.25;;;14.60;;
27293;SDS011;14785;52.556;13.430;2022-11-15T05:49:36;28.58;;;15.85;;
27293;SDS011;14785;52.556;13.430;2022-11-15T05:52:05;24.73;;;13.63;;
27293;SDS011;14785;52.556;13.430;2022-11-15T05:54:34;25.13;;;14.13;;
27293;SDS011;14785;52.556;13.430;2022-11-15T05:57:01;41.35;;;18.60;;
27293;SDS011;14785;52.556;13.430;2022-11-15T05:59:30;42.58;;;19.00;;
27293;SDS011;14785;52.556;13.430;2022-11-15T06:01:57;36.97;;;15.88;;
27293;SDS011;14785;52.556;13.430;2022-11-15T06:04:23;26.97;;;14.47;;
27293;SDS011;14785;52.556;13.430;2022-11-15T06:06:48;32.80;;;15.40;;
27293;SDS011;14785;52.556;13.430;2022-11-15T06:09:13;35.23;;;16.50;;
27293;SDS011;14785;52.556;13.430;2022-11-15T06:11:39;35.03;;;17.57;;
27293;SDS011;14785;52.556;13.430;2022-11-15T06:14:04;26.13;;;14.67;;
27293;SDS011;14785;52.556;13.430;2022-11-15T06:16:30;24.30;;;13.77;;
27293;SDS011;14785;52.556;13.430;2022-11-15T06:18:55;29.97;;;13.20;;
27293;SDS011;14785;52.556;13.430;2022-11-15T06:21:21;28.40;;;15.57;;
27293;SDS011;14785;52.556;13.430;2022-11-15T06:23:47;25.45;;;14.10;;
27293;SDS011;14785;52.556;13.430;2022-11-15T06:26:12;22.70;;;12.67;;
27293;SDS011;14785;52.556;13.430;2022-11-15T06:28:38;25.83;;;14.47;;
27293;SDS011;14785;52.556;13.430;2022-11-15T06:31:07;30.03;;;15.97;;
27293;SDS011;14785;52.556;13.430;2022-11-15T06:33:35;37.95;;;17.70;;
27293;SDS011;14785;52.556;13.430;2022-11-15T06:36:05;31.20;;;15.43;;
27293;SDS011;14785;52.556;13.430;2022-11-15T06:38:33;29.75;;;15.80;;
27293;SDS011;14785;52.556;13.430;2022-11-15T06:41:03;28.60;;;16.80;;
27293;SDS011;14785;52.556;13.430;2022-11-15T06:43:30;34.40;;;17.00;;
27293;SDS011;14785;52.556;13.430;2022-11-15T06:45:59;31.23;;;17.85;;
27293;SDS011;14785;52.556;13.430;2022-11-15T06:48:29;35.50;;;17.40;;
27293;SDS011;14785;52.556;13.430;2022-11-15T06:50:56;31.55;;;15.85;;
27293;SDS011;14785;52.556;13.430;2022-11-15T06:53:23;34.03;;;15.77;;
27293;SDS011;14785;52.556;13.430;2022-11-15T06:55:49;31.10;;;17.85;;
27293;SDS011;14785;52.556;13.430;2022-11-15T06:58:15;33.00;;;16.42;;
27293;SDS011;14785;52.556;13.430;2022-11-15T07:00:41;28.43;;;16.93;;
27293;SDS011;14785;52.556;13.430;2022-11-15T07:03:06;30.67;;;16.98;;
27293;SDS011;14785;52.556;13.430;2022-11-15T07:05:33;23.33;;;13.38;;
27293;SDS011;14785;52.556;13.430;2022-11-15T07:07:59;27.13;;;15.07;;
27293;SDS011;14785;52.556;13.430;2022-11-15T07:10:25;33.85;;;16.95;;
27293;SDS011;14785;52.556;13.430;2022-11-15T07:12:51;45.20;;;20.95;;
27293;SDS011;14785;52.556;13.430;2022-11-15T07:15:18;38.20;;;17.83;;
27293;SDS011;14785;52.556;13.430;2022-11-15T07:17:45;30.35;;;16.27;;
27293;SDS011;14785;52.556;13.430;2022-11-15T07:20:11;36.10;;;17.70;;
27293;SDS011;14785;52.556;13.430;2022-11-15T07:22:38;32.90;;;17.60;;
27293;SDS011;14785;52.556;13.430;2022-11-15T07:25:04;32.38;;;15.95;;
27293;SDS011;14785;52.556;13.430;2022-11-15T07:27:30;29.60;;;16.83;;
27293;SDS011;14785;52.556;13.430;2022-11-15T07:29:55;32.17;;;17.77;;
27293;SDS011;14785;52.556;13.430;2022-11-15T07:32:21;34.40;;;16.63;;
27293;SDS011;14785;52.556;13.430;2022-11-15T07:34:46;42.17;;;20.07;;
27293;SDS011;14785;52.556;13.430;2022-11-15T07:37:11;34.57;;;17.23;;
27293;SDS011;14785;52.556;13.430;2022-11-15T07:39:37;38.38;;;18.85;;
27293;SDS011;14785;52.556;13.430;2022-11-15T07:42:03;37.53;;;18.67;;
27293;SDS011;14785;52.556;13.430;2022-11-15T07:44:47;31.55;;;15.15;;
27293;SDS011;14785;52.556;13.430;2022-11-15T07:47:12;33.00;;;17.27;;
27293;SDS011;14785;52.556;13.430;2022-11-15T07:49:38;34.03;;;18.33;;
27293;SDS011;14785;52.556;13.430;2022-11-15T07:52:04;37.07;;;18.80;;
27293;SDS011;14785;52.556;13.430;2022-11-15T07:54:29;30.50;;;15.57;;
27293;SDS011;14785;52.556;13.430;2022-11-15T07:56:54;31.63;;;15.77;;
27293;SDS011;14785;52.556;13.430;2022-11-15T07:59:20;27.43;;;14.53;;
27293;SDS011;14785;52.556;13.430;2022-11-15T08:01:45;22.70;;;14.70;;
27293;SDS011;14785;52.556;13.430;2022-11-15T08:04:11;29.43;;;16.50;;
27293;SDS011;14785;52.556;13.430;2022-11-15T08:06:36;31.00;;;17.03;;
27293;SDS011;14785;52.556;13.430;2022-11-15T08:09:03;33.35;;;14.13;;
27293;SDS011;14785;52.556;13.430;2022-11-15T08:11:29;27.25;;;14.48;;
27293;SDS011;14785;52.556;13.430;2022-11-15T08:13:55;26.67;;;15.77;;
27293;SDS011;14785;52.556;13.430;2022-11-15T08:16:21;29.30;;;16.00;;
27293;SDS011;14785;52.556;13.430;2022-11-15T08:18:46;31.00;;;15.80;;
27293;SDS011;14785;52.556;13.430;2022-11-15T08:21:13;35.40;;;16.87;;
27293;SDS011;14785;52.556;13.430;2022-11-15T08:23:42;34.38;;;16.15;;
27293;SDS011;14785;52.556;13.430;2022-11-15T08:26:08;29.95;;;15.68;;
27293;SDS011;14785;52.556;13.430;2022-11-15T08:28:34;27.00;;;14.17;;
27293;SDS011;14785;52.556;13.430;2022-11-15T08:31:01;29.65;;;15.60;;
27293;SDS011;14785;52.556;13.430;2022-11-15T08:35:55;30.88;;;14.95;;
27293;SDS011;14785;52.556;13.430;2022-11-15T08:38:22;29.88;;;15.23;;
27293;SDS011;14785;52.556;13.430;2022-11-15T08:40:48;30.15;;;16.00;;
27293;SDS011;14785;52.556;13.430;2022-11-15T08:43:15;30.38;;;15.90;;
27293;SDS011;14785;52.556;13.430;2022-11-15T08:45:40;31.00;;;13.67;;
27293;SDS011;14785;52.556;13.430;2022-11-15T08:48:06;25.10;;;13.53;;
27293;SDS011;14785;52.556;13.430;2022-11-15T08:50:31;30.67;;;14.07;;
27293;SDS011;14785;52.556;13.430;2022-11-15T08:52:57;32.87;;;16.17;;
27293;SDS011;14785;52.556;13.430;2022-11-15T08:55:22;29.20;;;15.25;;
27293;SDS011;14785;52.556;13.430;2022-11-15T08:57:48;31.53;;;14.33;;
27293;SDS011;14785;52.556;13.430;2022-11-15T09:00:13;21.00;;;12.40;;
27293;SDS011;14785;52.556;13.430;2022-11-15T09:02:39;28.38;;;14.68;;
27293;SDS011;14785;52.556;13.430;2022-11-15T09:05:05;32.88;;;15.45;;
27293;SDS011;14785;52.556;13.430;2022-11-15T09:07:32;20.98;;;12.18;;
27293;SDS011;14785;52.556;13.430;2022-11-15T09:09:57;27.00;;;14.00;;
27293;SDS011;14785;52.556;13.430;2022-11-15T09:12:23;29.17;;;13.25;;
27293;SDS011;14785;52.556;13.430;2022-11-15T09:14:49;27.98;;;13.27;;
27293;SDS011;14785;52.556;13.430;2022-11-15T09:17:15;28.85;;;15.75;;
27293;SDS011;14785;52.556;13.430;2022-11-15T09:19:40;24.37;;;12.97;;
27293;SDS011;14785;52.556;13.430;2022-11-15T09:22:06;27.00;;;14.37;;
27293;SDS011;14785;52.556;13.430;2022-11-15T09:26:58;28.77;;;13.38;;
27293;SDS011;14785;52.556;13.430;2022-11-15T09:29:23;23.80;;;13.70;;
27293;SDS011;14785;52.556;13.430;2022-11-15T09:31:48;17.87;;;11.33;;
27293;SDS011;14785;52.556;13.430;2022-11-15T09:34:17;28.05;;;14.73;;
27293;SDS011;14785;52.556;13.430;2022-11-15T09:36:42;26.07;;;13.87;;
27293;SDS011;14785;52.556;13.430;2022-11-15T09:39:08;24.43;;;12.90;;
27293;SDS011;14785;52.556;13.430;2022-11-15T09:41:38;26.48;;;13.50;;
27293;SDS011;14785;52.556;13.430;2022-11-15T09:50:08;21.08;;;12.18;;
27293;SDS011;14785;52.556;13.430;2022-11-15T09:52:36;20.45;;;12.90;;
27293;SDS011;14785;52.556;13.430;2022-11-15T09:55:04;21.35;;;11.00;;
27293;SDS011;14785;52.556;13.430;2022-11-15T09:57:32;23.50;;;12.20;;
27293;SDS011;14785;52.556;13.430;2022-11-15T10:00:18;24.80;;;11.15;;
27293;SDS011;14785;52.556;13.430;2022-11-15T10:02:51;25.17;;;12.02;;
27293;SDS011;14785;52.556;13.430;2022-11-15T10:05:27;23.58;;;11.95;;
27293;SDS011;14785;52.556;13.430;2022-11-15T10:08:05;23.13;;;12.00;;
27293;SDS011;14785;52.556;13.430;2022-11-15T10:10:59;18.15;;;10.38;;
27293;SDS011;14785;52.556;13.430;2022-11-15T10:13:31;35.17;;;15.52;;
27293;SDS011;14785;52.556;13.430;2022-11-15T10:16:24;20.35;;;11.48;;
27293;SDS011;14785;52.556;13.430;2022-11-15T10:27:34;24.35;;;10.38;;
27293;SDS011;14785;52.556;13.430;2022-11-15T10:30:00;18.48;;;9.63;;
27293;SDS011;14785;52.556;13.430;2022-11-15T10:32:28;21.08;;;10.27;;
27293;SDS011;14785;52.556;13.430;2022-11-15T10:34:58;19.38;;;10.70;;
27293;SDS011;14785;52.556;13.430;2022-11-15T10:37:30;16.60;;;8.93;;
27293;SDS011;14785;52.556;13.430;2022-11-15T10:40:03;23.05;;;9.85;;
27293;SDS011;14785;52.556;13.430;2022-11-15T10:42:30;28.58;;;11.15;;
27293;SDS011;14785;52.556;13.430;2022-11-15T10:44:56;12.70;;;7.73;;
27293;SDS011;14785;52.556;13.430;2022-11-15T10:47:26;15.97;;;9.17;;
27293;SDS011;14785;52.556;13.430;2022-11-15T10:50:38;14.90;;;8.18;;
27293;SDS011;14785;52.556;13.430;2022-11-15T10:52:52;16.92;;;8.60;;
27293;SDS011;14785;52.556;13.430;2022-11-15T10:55:28;21.30;;;9.75;;
27293;SDS011;14785;52.556;13.430;2022-11-15T10:58:02;18.17;;;10.30;;
27293;SDS011;14785;52.556;13.430;2022-11-15T11:00:35;18.13;;;8.63;;
27293;SDS011;14785;52.556;13.430;2022-11-15T11:03:05;17.92;;;9.38;;
27293;SDS011;14785;52.556;13.430;2022-11-15T11:05:50;13.45;;;7.72;;
27293;SDS011;14785;52.556;13.430;2022-11-15T11:08:29;23.17;;;7.78;;
27293;SDS011;14785;52.556;13.430;2022-11-15T11:10:58;12.00;;;7.27;;
27293;SDS011;14785;52.556;13.430;2022-11-15T11:13:29;14.82;;;8.23;;
27293;SDS011;14785;52.556;13.430;2022-11-15T11:16:01;17.92;;;8.45;;
27293;SDS011;14785;52.556;13.430;2022-11-15T11:21:19;11.60;;;5.97;;
27293;SDS011;14785;52.556;13.430;2022-11-15T11:24:14;22.45;;;9.52;;
27293;SDS011;14785;52.556;13.430;2022-11-15T11:32:36;79.30;;;27.05;;
27293;SDS011;14785;52.556;13.430;2022-11-15T11:51:01;16.85;;;7.75;;
27293;SDS011;14785;52.556;13.430;2022-11-15T11:53:37;14.95;;;7.13;;
27293;SDS011;14785;52.556;13.430;2022-11-15T12:02:07;11.52;;;5.30;;
27293;SDS011;14785;52.556;13.430;2022-11-15T12:04:53;11.93;;;5.93;;
27293;SDS011;14785;52.556;13.430;2022-11-15T12:07:42;13.90;;;6.95;;
27293;SDS011;14785;52.556;13.430;2022-11-15T12:10:43;14.75;;;6.75;;
27293;SDS011;14785;52.556;13.430;2022-11-15T12:13:05;11.35;;;5.60;;
27293;SDS011;14785;52.556;13.430;2022-11-15T12:15:47;11.35;;;5.57;;
27293;SDS011;14785;52.556;13.430;2022-11-15T12:18:22;13.05;;;6.93;;
27293;SDS011;14785;52.556;13.430;2022-11-15T12:20:58;17.47;;;7.57;;
27293;SDS011;14785;52.556;13.430;2022-11-15T12:23:30;14.63;;;7.30;;
27293;SDS011;14785;52.556;13.430;2022-11-15T12:26:01;13.00;;;6.68;;
27293;SDS011;14785;52.556;13.430;2022-11-15T12:29:15;15.95;;;8.48;;
27293;SDS011;14785;52.556;13.430;2022-11-15T12:34:04;9.18;;;6.10;;
27293;SDS011;14785;52.556;13.430;2022-11-15T12:36:41;11.57;;;6.85;;
27293;SDS011;14785;52.556;13.430;2022-11-15T12:39:12;10.68;;;6.18;;
27293;SDS011;14785;52.556;13.430;2022-11-15T12:44:10;15.75;;;8.13;;
27293;SDS011;14785;52.556;13.430;2022-11-15T12:57:30;9.02;;;5.43;;
27293;SDS011;14785;52.556;13.430;2022-11-15T12:59:56;10.77;;;5.72;;
27293;SDS011;14785;52.556;13.430;2022-11-15T13:04:55;12.73;;;6.55;;
27293;SDS011;14785;52.556;13.430;2022-11-15T13:20:58;13.50;;;5.28;;
27293;SDS011;14785;52.556;13.430;2022-11-15T13:23:25;22.85;;;6.07;;
27293;SDS011;14785;52.556;13.430;2022-11-15T13:28:42;10.20;;;5.18;;
27293;SDS011;14785;52.556;13.430;2022-11-15T13:33:48;11.80;;;5.55;;
27293;SDS011;14785;52.556;13.430;2022-11-15T13:36:20;10.87;;;5.33;;
27293;SDS011;14785;52.556;13.430;2022-11-15T13:38:55;14.18;;;6.95;;
27293;SDS011;14785;52.556;13.430;2022-11-15T13:41:26;11.15;;;6.13;;
27293;SDS011;14785;52.556;13.430;2022-11-15T13:43:57;14.73;;;7.05;;
27293;SDS011;14785;52.556;13.430;2022-11-15T13:46:24;10.43;;;5.13;;
27293;SDS011;14785;52.556;13.430;2022-11-15T13:48:56;12.27;;;5.43;;
27293;SDS011;14785;52.556;13.430;2022-11-15T13:56:56;9.77;;;5.65;;
27293;SDS011;14785;52.556;13.430;2022-11-15T13:59:33;16.10;;;5.45;;
27293;SDS011;14785;52.556;13.430;2022-11-15T14:05:15;12.20;;;5.65;;
27293;SDS011;14785;52.556;13.430;2022-11-15T14:10:29;9.43;;;5.25;;
27293;SDS011;14785;52.556;13.430;2022-11-15T14:12:56;14.25;;;7.10;;
27293;SDS011;14785;52.556;13.430;2022-11-15T14:15:30;12.75;;;6.53;;
27293;SDS011;14785;52.556;13.430;2022-11-15T14:17:58;14.18;;;6.80;;
27293;SDS011;14785;52.556;13.430;2022-11-15T14:20:29;7.00;;;4.55;;
27293;SDS011;14785;52.556;13.430;2022-11-15T14:23:30;14.88;;;7.47;;
27293;SDS011;14785;52.556;13.430;2022-11-15T14:25:54;11.80;;;6.60;;
27293;SDS011;14785;52.556;13.430;2022-11-15T14:30:50;19.77;;;8.93;;
27293;SDS011;14785;52.556;13.430;2022-11-15T14:33:33;12.90;;;6.72;;
27293;SDS011;14785;52.556;13.430;2022-11-15T14:36:05;13.55;;;6.13;;
27293;SDS011;14785;52.556;13.430;2022-11-15T14:38:38;16.42;;;8.15;;
27293;SDS011;14785;52.556;13.430;2022-11-15T14:41:04;15.27;;;7.57;;
27293;SDS011;14785;52.556;13.430;2022-11-15T14:43:30;9.95;;;6.18;;
27293;SDS011;14785;52.556;13.430;2022-11-15T14:45:56;10.73;;;6.43;;
27293;SDS011;14785;52.556;13.430;2022-11-15T14:48:21;12.10;;;5.73;;
27293;SDS011;14785;52.556;13.430;2022-11-15T14:50:47;23.20;;;7.70;;
27293;SDS011;14785;52.556;13.430;2022-11-15T14:53:16;17.27;;;7.70;;
27293;SDS011;14785;52.556;13.430;2022-11-15T14:55:42;12.55;;;6.53;;
27293;SDS011;14785;52.556;13.430;2022-11-15T14:58:08;13.23;;;6.78;;
27293;SDS011;14785;52.556;13.430;2022-11-15T15:00:38;12.70;;;7.00;;
27293;SDS011;14785;52.556;13.430;2022-11-15T15:03:05;15.98;;;7.85;;
27293;SDS011;14785;52.556;13.430;2022-11-15T15:05:35;19.73;;;7.28;;
27293;SDS011;14785;52.556;13.430;2022-11-15T15:08:02;18.67;;;7.45;;
27293;SDS011;14785;52.556;13.430;2022-11-15T15:10:30;41.20;;;17.92;;
27293;SDS011;14785;52.556;13.430;2022-11-15T15:12:58;19.55;;;8.93;;
27293;SDS011;14785;52.556;13.430;2022-11-15T15:15:24;14.20;;;8.23;;
27293;SDS011;14785;52.556;13.430;2022-11-15T15:17:52;14.70;;;7.80;;
27293;SDS011;14785;52.556;13.430;2022-11-15T15:20:17;37.20;;;9.93;;
27293;SDS011;14785;52.556;13.430;2022-11-15T15:22:43;17.93;;;8.63;;
27293;SDS011;14785;52.556;13.430;2022-11-15T15:25:20;20.33;;;8.13;;
27293;SDS011;14785;52.556;13.430;2022-11-15T15:27:46;16.35;;;8.27;;
27293;SDS011;14785;52.556;13.430;2022-11-15T15:30:11;13.03;;;7.10;;
27293;SDS011;14785;52.556;13.430;2022-11-15T15:32:37;9.95;;;6.35;;
27293;SDS011;14785;52.556;13.430;2022-11-15T15:35:02;15.37;;;7.17;;
27293;SDS011;14785;52.556;13.430;2022-11-15T15:37:28;12.30;;;7.00;;
27293;SDS011;14785;52.556;13.430;2022-11-15T15:39:55;17.65;;;7.78;;
27293;SDS011;14785;52.556;13.430;2022-11-15T15:44:47;11.77;;;6.40;;
27293;SDS011;14785;52.556;13.430;2022-11-15T15:47:23;12.40;;;6.38;;
27293;SDS011;14785;52.556;13.430;2022-11-15T15:49:49;11.73;;;6.30;;
27293;SDS011;14785;52.556;13.430;2022-11-15T15:52:15;12.85;;;7.00;;
27293;SDS011;14785;52.556;13.430;2022-11-15T15:54:41;12.73;;;7.30;;
27293;SDS011;14785;52.556;13.430;2022-11-15T15:57:07;9.83;;;5.73;;
27293;SDS011;14785;52.556;13.430;2022-11-15T15:59:33;11.60;;;7.35;;
27293;SDS011;14785;52.556;13.430;2022-11-15T16:01:59;19.03;;;7.60;;
27293;SDS011;14785;52.556;13.430;2022-11-15T16:04:24;16.37;;;8.23;;
27293;SDS011;14785;52.556;13.430;2022-11-15T16:06:50;15.57;;;7.28;;
27293;SDS011;14785;52.556;13.430;2022-11-15T16:11:44;11.27;;;6.45;;
27293;SDS011;14785;52.556;13.430;2022-11-15T16:14:11;23.13;;;10.68;;
27293;SDS011;14785;52.556;13.430;2022-11-15T16:16:36;19.17;;;9.50;;
27293;SDS011;14785;52.556;13.430;2022-11-15T16:19:02;24.57;;;11.50;;
27293;SDS011;14785;52.556;13.430;2022-11-15T16:21:28;19.25;;;10.13;;
27293;SDS011;14785;52.556;13.430;2022-11-15T16:23:54;21.87;;;10.47;;
27293;SDS011;14785;52.556;13.430;2022-11-15T16:26:26;19.40;;;10.77;;
27293;SDS011;14785;52.556;13.430;2022-11-15T16:28:53;17.25;;;9.30;;
27293;SDS011;14785;52.556;13.430;2022-11-15T16:31:19;18.58;;;9.32;;
27293;SDS011;14785;52.556;13.430;2022-11-15T16:33:47;18.17;;;10.13;;
27293;SDS011;14785;52.556;13.430;2022-11-15T16:38:46;23.23;;;11.25;;
27293;SDS011;14785;52.556;13.430;2022-11-15T16:41:12;19.13;;;10.50;;